Terminal Aerodrome Forecast
Issued by NWS Caribou, ME

Home | Current Version | Previous Version | Text Only | Print | Product List | Glossary On
Versions: 1 2 3 4 5 6 7 8 9 10 11 12 13
000
FTUS41 KCAR 131700
TAFCAR
TAF
KCAR 131723Z 1318/1418 16011KT P6SM OVC250
     FM140000 19011KT 2SM -SHRA BR OVC050
     FM140500 18009KT 2SM BR OVC015
     FM141300 21009KT P6SM BKN025
     FM141400 22010KT P6SM BKN250=

USA.gov is the U.S. government's official web portal to all federal, state and local government web resources and services.